Date,TemperatureHighF,TemperatureAvgF,TemperatureLowF,DewpointHighF,DewpointAvgF,DewpointLowF,HumidityHigh,HumidityAvg,HumidityLow,PressureMaxIn,PressureMinIn,WindSpeedMaxMPH,WindSpeedAvgMPH,GustSpeedMaxMPH,PrecipitationSumIn
2013-1-1,30.2,20.3,13.5,13.3,2.9,-2.4,61,47,26,30.38,30.23,6,2,6,0.01
2013-1-2,26.8,19.2,9.9,11.6,6.8,-0.8,68,58,48,30.40,30.30,7,2,7,0.00
2013-1-3,29.3,25.8,12.7,21.1,15.8,-0.8,72,66,49,30.39,30.29,11,3,11,0.00
2013-1-4,35.4,26.8,22.5,19.9,13.3,8.6,70,57,39,30.42,30.27,18,5,18,0.00
2013-1-5,34.7,25.8,15.4,26.7,16.5,7.8,81,68,51,30.51,30.25,10,2,10,0.00
2013-1-6,34.9,32.9,32.0,27.2,26.6,26.2,80,77,72,30.25,30.14,8,3,8,0.00
2013-1-7,38.7,31.1,26.2,23.0,19.2,16.8,69,61,47,30.61,30.39,15,4,15,0.00
2013-1-8,39.2,24.8,19.2,24.4,16.5,11.4,77,71,54,30.48,30.39,8,1,8,0.00
2013-1-9,48.6,34.3,23.0,30.4,20.4,16.9,83,59,29,30.67,30.27,12,4,12,0.00
2013-1-10,41.5,32.7,23.5,29.1,22.3,17.0,81,66,49,30.79,30.40,7,2,7,0.05
2013-1-11,60.3,44.0,34.5,50.4,39.1,28.7,91,83,64,30.40,30.01,11,2,11,0.40
2013-1-12,63.0,50.3,44.1,48.4,44.4,40.7,89,81,56,30.19,30.08,9,2,9,0.01
2013-1-13,49.8,38.8,30.4,47.0,34.8,24.4,90,86,78,30.27,29.95,14,2,14,0.40
2013-1-14,30.4,24.6,17.2,24.4,12.4,7.9,78,60,46,30.65,30.27,0,0,0,0.00
2013-1-15,32.5,22.6,13.8,17.7,10.3,6.1,74,60,43,30.65,30.37,0,0,0,0.00
2013-1-16,43.2,29.7,19.8,21.6,12.9,1.8,75,53,20,30.37,30.06,14,2,14,0.00
2013-1-17,42.1,32.3,27.1,23.5,14.7,4.4,68,49,31,30.45,30.14,14,5,14,0.00
2013-1-18,33.4,29.4,0.0,17.4,9.3,0.0,52,42,37,30.45,29.49,15,7,15,0.00
2013-1-19,50.0,41.0,33.1,30.6,24.1,17.2,64,51,40,29.49,29.10,19,5,19,0.00
2013-1-20,43.7,23.2,16.7,29.9,0.4,-11.2,58,37,26,29.68,29.08,30,9,30,0.04
2013-1-21,19.9,14.0,4.8,8.4,-2.1,-11.7,67,48,37,29.64,29.46,12,4,12,0.00
2013-1-22,14.2,5.3,-2.7,-4.7,-14.3,-23.5,55,40,22,29.78,29.61,11,4,11,0.00
2013-1-23,19.2,11.3,3.4,4.1,-4.3,-9.3,64,49,37,29.77,29.58,11,2,11,0.00
2013-1-24,15.3,12.3,8.6,3.8,-4.8,-15.9,64,47,23,29.92,29.60,8,2,8,0.00
2013-1-25,24.3,17.7,13.8,10.1,4.7,-6.7,67,56,38,29.85,29.38,8,2,8,0.00
2013-1-26,27.1,22.0,17.6,13.6,9.1,3.8,74,58,38,29.80,29.41,9,2,9,0.00
2013-1-27,31.8,22.3,12.9,23.6,10.8,4.7,80,62,38,29.83,29.47,11,2,11,0.01
2013-1-28,43.9,37.1,28.9,41.2,33.6,23.6,91,87,80,29.50,29.23,8,1,8,0.27
2013-1-29,56.5,45.8,35.1,53.0,42.8,31.4,92,89,84,29.39,28.86,12,2,12,0.50
2013-1-30,61.3,49.9,32.7,54.6,45.4,24.2,90,84,72,28.85,28.52,22,4,22,0.37
2013-1-31,32.4,22.5,15.8,24.0,9.4,2.4,76,57,46,29.24,28.64,18,3,18,0.01
2013-2-1,19.6,14.3,8.1,6.7,0.4,-8.4,65,53,42,29.63,29.23,14,5,14,0.00
2013-2-2,25.3,17.0,9.3,14.2,5.7,-2.9,70,60,53,29.57,29.30,11,2,11,0.06
2013-2-3,24.8,13.4,5.0,11.8,0.0,-4.4,67,55,40,29.37,29.21,14,2,14,0.00
2013-2-4,25.9,20.1,16.0,13.3,9.5,1.2,71,63,50,29.38,29.24,5,0,5,0.00
2013-2-5,27.9,22.8,16.3,21.0,12.5,7.7,77,65,45,29.31,29.18,9,2,9,0.00
2013-2-6,39.4,25.0,12.2,19.5,9.7,4.4,71,53,29,29.66,29.31,9,2,9,0.01
2013-2-7,44.4,30.9,23.9,24.4,17.9,10.9,71,58,43,29.64,29.22,10,3,10,0.00
2013-2-8,30.2,26.5,16.9,24.9,17.1,7.0,83,68,54,29.70,29.14,14,4,14,0.01
2013-2-9,39.7,22.4,9.9,17.0,9.8,0.9,79,60,27,29.80,26.63,8,2,8,0.09
2013-2-10,41.4,32.1,19.0,30.2,21.9,12.5,80,67,46,29.65,29.06,10,2,10,0.11
2013-2-11,43.9,37.4,31.6,40.3,26.4,18.4,88,65,49,29.24,28.94,24,8,24,0.01
2013-2-12,33.4,31.0,27.5,20.4,18.3,13.3,65,59,52,29.42,29.24,13,5,13,0.00
2013-2-13,45.7,31.2,26.2,22.4,17.6,13.3,74,57,37,29.29,29.11,7,1,8,0.00
2013-2-14,40.3,34.6,26.8,32.8,26.7,18.8,81,73,59,29.21,29.06,15,4,15,0.00
2013-2-15,34.3,28.4,22.1,22.9,12.6,2.7,64,52,36,29.49,29.21,12,4,12,0.00
2013-2-16,28.6,21.0,16.9,15.4,6.5,-0.6,65,53,34,29.47,29.33,14,2,14,0.00
2013-2-17,27.1,18.8,13.3,3.4,-1.0,-10.5,53,43,20,29.93,29.41,11,3,11,0.00
2013-2-18,46.6,32.2,13.3,30.9,14.4,-1.8,64,48,35,29.93,29.35,12,3,12,0.00
2013-2-19,46.6,28.5,17.2,38.3,18.1,2.1,87,65,45,29.67,29.17,16,2,16,0.15
2013-2-20,23.2,19.1,15.3,5.5,2.1,-4.2,57,47,39,29.94,29.67,15,2,15,0.00
2013-2-21,29.3,23.3,20.5,11.1,7.9,4.2,63,52,38,30.11,29.97,9,3,9,0.00
2013-2-22,32.9,27.2,21.7,28.9,20.3,11.1,85,75,60,29.99,29.62,12,3,12,0.00
2013-2-23,32.5,30.6,28.2,28.0,20.9,14.6,83,67,56,29.67,29.61,11,3,11,0.00
2013-2-24,37.9,33.8,30.6,20.8,18.9,16.7,64,54,45,30.80,29.92,9,3,9,0.08
2013-2-25,46.8,31.2,19.6,27.5,18.5,13.6,80,60,32,30.14,30.01,4,0,4,0.00
2013-2-26,35.4,31.6,27.7,28.3,20.6,14.5,85,64,49,30.03,29.46,14,3,14,0.25
2013-2-27,36.3,33.1,32.2,31.6,28.6,27.7,86,83,75,29.49,29.36,6,1,6,0.01
2013-2-28,39.9,33.9,29.8,30.3,26.8,20.9,85,75,62,29.87,29.47,11,3,11,0.14
2013-3-1,29.8,26.9,25.0,20.9,15.1,11.9,70,61,53,30.02,29.87,10,3,10,0.00
2013-3-2,27.3,24.9,23.2,15.3,13.0,10.8,67,60,55,30.00,29.96,7,3,7,0.00
2013-3-3,35.4,25.5,17.4,11.1,8.0,2.6,61,49,26,29.98,29.91,11,4,11,0.00
2013-3-4,44.4,29.5,15.3,12.2,8.4,3.6,63,42,20,30.06,29.96,6,2,6,0.00
2013-3-5,39.7,28.7,20.1,20.5,15.8,10.1,74,59,40,30.04,29.74,12,4,12,0.00
2013-3-6,41.5,33.7,26.6,25.2,21.1,15.5,72,60,49,30.12,29.75,10,3,10,0.00
2013-3-7,39.7,33.4,25.3,27.3,20.3,10.6,71,59,47,30.31,30.11,8,2,8,0.00
2013-3-8,50.2,33.4,21.6,22.0,16.9,11.5,69,52,28,30.40,30.30,7,1,7,0.00
2013-3-9,46.8,35.1,23.5,29.0,22.7,16.7,80,61,44,30.33,29.96,11,2,11,0.00
2013-3-10,66.4,49.3,32.7,41.4,32.5,25.0,78,54,36,29.96,29.73,11,2,12,0.00
2013-3-11,54.9,49.1,37.0,46.2,40.3,27.5,87,72,48,29.75,29.40,16,4,16,0.34
2013-3-12,37.2,34.1,28.4,27.8,24.4,-27.1,75,67,56,29.84,29.62,115,4,115,0.04
2013-3-13,34.7,29.3,25.5,24.0,14.9,3.9,79,56,37,30.10,29.77,17,6,17,0.01
2013-3-14,45.0,33.4,21.2,16.4,9.9,3.3,60,39,19,30.17,29.99,11,3,11,0.00
2013-3-15,41.4,35.4,29.8,28.0,22.9,13.7,70,60,44,30.00,29.79,11,4,11,0.00
2013-3-16,33.1,30.3,27.9,24.2,20.4,14.6,79,66,56,30.17,29.92,11,0,11,0.07
2013-3-17,38.7,28.1,20.7,19.2,9.6,2.6,67,47,26,30.39,30.16,11,2,11,0.05
2013-3-18,34.7,29.4,22.6,30.7,20.7,8.5,85,70,53,30.31,29.69,30,4,30,0.08
2013-3-19,34.3,27.2,23.0,27.3,11.7,5.2,76,52,40,30.07,29.75,22,4,22,0.02
2013-3-20,30.6,25.1,17.6,12.7,6.3,-1.4,58,44,32,30.08,30.01,14,5,14,0.00
2013-3-21,32.5,24.3,15.1,17.8,10.7,0.4,66,56,44,30.06,29.99,14,5,14,0.00
2013-3-22,44.8,31.9,25.7,17.5,13.0,8.8,63,46,25,30.16,30.06,13,4,13,0.00
2013-3-23,44.4,31.6,21.6,21.8,16.4,13.3,73,54,36,30.24,30.15,8,2,8,0.00
2013-3-24,38.1,32.0,23.7,21.4,18.0,14.7,72,57,41,30.19,29.91,12,3,12,0.00
2013-3-25,40.5,36.4,32.0,25.1,20.1,18.2,64,51,47,30.04,29.74,13,5,13,0.00
2013-3-26,46.0,37.9,32.9,27.0,23.3,21.3,64,56,41,30.25,30.04,10,4,10,0.00
2013-3-27,48.4,40.3,30.4,24.3,21.2,16.8,66,48,28,30.33,30.24,17,5,17,0.00
2013-3-28,50.2,43.0,34.2,21.3,19.1,15.7,48,39,25,30.40,30.33,7,5,7,0.00
2013-3-29,56.8,52.5,47.3,18.2,14.5,8.1,31,23,15,30.40,30.32,5,3,5,0.00
2013-3-30,59.9,56.0,50.9,12.5,10.0,6.9,17,16,12,30.35,30.07,11,4,11,0.00
2013-3-31,59.0,59.0,59.0,9.9,9.9,9.9,14,14,14,30.07,29.85,5,5,5,0.00
2013-4-1,33.8,29.6,27.3,8.9,5.8,2.6,41,36,26,29.96,29.89,10,5,10,0.00
2013-4-2,44.4,32.6,22.8,13.6,4.3,-4.8,60,33,16,30.10,29.95,14,4,14,0.00
2013-4-3,48.7,33.8,23.7,12.7,4.2,-5.8,50,31,14,30.27,30.09,11,3,11,0.00
2013-4-4,62.2,41.1,23.2,17.1,8.4,2.3,52,30,11,30.22,29.83,11,2,11,0.00
2013-4-5,53.6,43.6,33.8,28.9,15.0,2.4,69,35,13,30.07,29.81,8,3,8,0.00
2013-4-6,52.2,40.2,30.0,29.2,18.2,7.4,59,43,22,30.11,29.66,12,4,12,0.00
2013-4-7,59.2,53.4,40.8,42.9,33.5,22.9,63,48,30,29.90,29.50,27,6,27,0.00
2013-4-8,67.1,47.2,35.4,53.6,37.3,26.8,84,69,49,29.91,29.57,18,4,18,0.17
2013-4-9,56.8,48.2,43.2,43.0,40.4,38.0,83,75,59,29.95,29.75,53,2,53,0.01
2013-4-10,48.4,43.3,39.2,42.5,39.6,36.4,90,87,80,29.85,29.72,10,3,10,0.26
2013-4-11,39.2,37.6,36.3,36.6,34.0,31.4,91,87,82,29.83,29.49,15,6,15,0.76
2013-4-12,46.2,38.7,35.6,38.1,32.9,29.0,90,80,57,29.65,29.39,15,4,15,0.25
2013-4-13,43.0,38.6,36.9,34.0,28.1,21.8,82,67,46,30.02,29.64,17,4,17,0.01
2013-4-14,52.7,40.4,31.8,32.9,27.6,21.6,71,60,45,30.15,29.97,12,2,12,0.02
2013-4-15,71.4,55.3,35.8,51.8,41.8,28.7,80,62,43,30.00,29.92,18,2,18,0.00
2013-4-16,63.1,55.3,47.8,50.1,39.6,24.3,89,59,26,30.26,29.92,8,3,11,0.27
2013-4-17,49.3,45.3,42.8,39.8,33.5,27.8,87,64,54,30.34,29.83,14,3,14,0.52
2013-4-18,80.8,58.4,43.2,62.8,52.2,39.7,92,81,50,29.84,29.39,21,4,21,0.60
2013-4-19,57.9,45.5,37.0,55.9,37.2,24.3,94,74,53,29.56,29.16,24,6,24,0.26
2013-4-20,45.0,36.1,29.1,28.3,16.7,8.0,83,47,26,30.22,29.55,17,5,17,0.00
2013-4-21,51.6,38.8,24.3,25.4,18.5,10.5,77,46,24,30.40,30.22,10,2,10,0.00
2013-4-22,66.0,48.6,30.9,34.5,23.5,6.5,78,44,10,30.26,30.00,8,2,8,0.00
2013-4-23,72.9,55.7,38.1,53.6,39.6,30.8,94,60,27,30.00,29.61,16,2,16,0.21
2013-4-24,54.9,41.0,34.9,53.2,37.2,24.3,98,87,62,29.93,29.54,11,4,11,0.31
2013-4-25,55.4,42.5,30.0,41.5,29.5,20.7,87,62,28,30.13,29.90,14,4,14,0.14
2013-4-26,65.1,46.6,28.6,37.5,28.5,22.1,87,55,24,30.25,30.13,14,2,14,0.00
2013-4-27,73.0,55.7,34.9,45.2,32.3,11.9,95,50,10,30.16,29.92,10,2,10,0.00
2013-4-28,54.0,52.2,50.0,52.3,44.8,31.7,95,78,46,29.92,29.64,7,1,7,0.25
2013-4-29,75.2,60.6,50.7,56.5,51.9,49.1,98,76,42,29.75,29.64,10,1,10,0.04
2013-4-30,76.6,62.7,51.1,56.6,52.9,50.0,97,72,46,29.88,29.75,14,2,14,0.01
2013-5-1,84.9,67.5,48.6,56.2,52.1,47.8,97,63,31,30.06,29.88,12,2,12,0.00
2013-5-2,81.7,70.6,60.8,55.0,49.8,41.7,71,50,25,30.06,29.96,11,3,11,0.00
2013-5-3,79.7,67.9,55.8,53.7,41.0,16.3,66,41,10,30.66,29.88,11,2,11,0.00
2013-5-4,77.2,64.3,54.7,47.4,37.2,21.1,73,41,15,29.94,29.87,14,2,14,0.01
2013-5-5,76.1,63.1,52.5,48.5,36.2,21.0,66,41,13,29.92,29.84,11,2,11,0.22
2013-5-6,79.0,63.6,48.7,46.4,40.3,35.4,70,45,24,29.88,29.80,8,2,8,0.00
2013-5-7,59.5,59.5,59.5,40.9,40.9,40.9,50,50,50,29.87,29.81,4,4,4,0.00
2013-5-8,82.0,66.3,57.9,56.8,52.7,40.6,87,64,23,29.81,29.76,4,1,4,0.01
2013-5-9,86.4,68.7,51.3,57.0,49.8,41.7,96,57,23,29.81,29.72,5,1,5,0.00
2013-5-10,74.5,60.3,43.9,63.3,52.9,38.6,96,78,55,29.76,29.58,11,2,11,0.22
2013-5-11,67.3,51.1,43.2,45.1,42.2,39.3,92,73,39,29.69,29.55,10,3,10,0.00
2013-5-12,56.1,49.9,33.6,43.3,33.0,20.8,63,53,34,30.06,29.57,15,4,15,0.02
2013-5-13,62.8,45.4,28.8,27.0,19.5,8.0,83,43,13,30.14,30.05,11,2,11,0.00
2013-5-14,82.9,58.5,42.3,51.3,37.5,26.5,61,48,25,30.08,29.71,16,2,16,0.00
2013-5-15,71.8,68.5,54.3,59.2,52.4,36.8,90,58,28,29.94,29.58,9,6,9,0.06
2013-5-16,81.3,73.3,52.2,47.1,42.6,39.1,76,36,24,30.03,29.93,8,3,8,0.00
2013-5-18,82.0,73.6,61.3,48.3,44.6,42.2,54,36,25,29.92,29.84,6,2,6,0.20
2013-5-19,90.3,72.2,55.2,62.3,54.3,42.6,78,55,35,29.86,29.70,7,2,7,0.11
2013-5-20,84.4,73.8,60.4,68.8,63.9,57.9,93,73,58,29.75,29.70,5,2,5,0.00
2013-5-21,88.0,77.9,70.0,62.8,60.0,56.9,77,56,36,29.94,29.90,11,1,11,0.12
2013-5-22,85.5,70.2,61.3,64.9,61.2,55.1,91,75,38,29.94,29.81,14,2,14,0.08
2013-5-23,66.0,54.9,43.7,59.6,51.6,40.1,96,89,72,30.28,29.87,8,2,8,0.06
2013-5-24,63.0,49.6,40.5,42.9,35.2,30.3,96,61,31,30.48,30.28,9,2,9,0.00
2013-5-25,72.3,54.8,36.1,44.9,33.4,21.0,96,52,18,30.53,30.41,6,1,6,0.11
2013-5-26,69.3,58.8,38.7,44.0,30.3,25.3,92,42,21,30.59,30.43,2,0,2,0.00
2013-5-27,66.9,59.1,50.0,50.2,37.6,25.7,96,56,21,30.49,29.72,7,2,7,0.54
2013-5-28,73.0,57.4,50.9,69.6,55.0,49.8,96,92,80,29.93,29.63,8,1,8,0.12
2013-5-29,83.7,73.8,67.6,66.7,65.8,62.5,89,77,51,29.94,29.91,4,1,6,0.01
2013-5-30,92.7,76.1,62.8,72.9,64.7,60.7,94,71,39,30.00,29.91,11,2,11,0.33
2013-5-31,83.3,72.7,65.5,69.2,66.1,64.1,98,81,59,29.95,29.81,9,2,9,0.06
2013-6-1,81.9,71.1,63.0,67.9,62.8,59.9,96,77,53,29.82,29.65,6,2,6,0.21
2013-6-2,73.4,66.1,55.2,64.3,55.8,43.7,90,70,50,29.90,29.61,11,3,11,0.00
2013-6-3,75.7,63.3,43.7,43.5,38.0,28.2,83,43,20,30.00,29.91,6,1,6,0.00
2013-6-4,80.1,63.3,47.1,49.1,41.8,26.8,90,50,20,30.10,27.08,8,1,8,0.08
2013-6-5,79.3,64.3,52.0,44.8,38.7,30.1,62,41,20,30.09,29.92,8,2,8,0.02
2013-6-6,75.6,62.5,55.9,53.1,46.8,40.2,69,57,41,29.93,29.77,8,2,8,0.00
2013-6-7,63.0,57.2,51.3,52.8,50.2,47.4,92,78,66,29.82,29.79,5,1,5,0.00
2013-6-8,79.0,64.9,56.7,55.3,51.3,48.5,80,63,36,30.58,29.82,5,1,5,0.02
2013-6-9,79.2,68.0,58.1,59.2,55.0,50.3,90,65,39,30.03,29.88,9,2,9,0.00
2013-6-10,71.2,65.1,60.1,68.3,62.9,53.6,98,93,66,29.89,29.66,4,0,4,1.03
2013-6-11,86.9,73.2,63.7,65.0,62.7,58.0,98,73,40,29.83,29.69,10,2,10,0.00
2013-6-12,81.1,71.3,64.4,70.1,64.1,59.3,95,78,55,29.88,29.60,6,1,6,0.06
2013-6-13,84.2,71.9,60.1,65.5,57.8,50.6,98,66,35,29.87,29.46,10,2,10,0.77
2013-6-14,85.6,70.5,59.2,59.3,52.9,44.8,88,58,27,30.01,29.87,7,1,7,0.00
2013-6-15,82.9,68.6,55.2,63.1,56.7,52.8,94,69,39,30.02,29.87,8,1,8,0.01
2013-6-16,88.3,72.9,62.6,65.0,59.5,44.1,97,67,31,29.87,29.72,11,2,11,0.24
2013-6-17,91.6,76.5,60.6,62.5,55.1,47.9,80,52,23,29.86,29.79,8,2,8,0.00
2013-6-18,77.9,67.5,57.6,59.2,51.1,40.1,91,59,28,30.01,29.83,10,2,10,0.05
2013-6-19,82.8,67.6,50.2,55.1,46.2,38.3,77,48,26,30.09,30.00,6,1,6,0.26
2013-6-20,74.8,74.8,74.8,51.5,51.5,51.5,44,44,44,30.04,30.04,0,0,5,0.00
2013-6-26,88.0,77.7,70.3,69.4,67.5,65.7,93,73,50,29.94,29.90,8,1,8,1.28
2013-6-27,88.5,71.9,64.8,73.2,67.6,62.1,98,87,46,29.93,29.78,5,0,5,1.49
2013-6-28,80.6,67.7,62.6,69.7,63.3,57.9,98,86,57,29.80,29.67,7,1,7,0.14
2013-6-29,73.6,65.0,62.1,65.8,61.9,59.6,94,90,69,30.01,29.70,4,0,4,0.43
2013-6-30,82.8,73.8,59.0,61.4,56.3,50.1,96,56,36,30.26,30.05,8,2,8,0.01
2013-7-1,68.2,62.2,59.2,60.5,54.7,46.3,96,77,53,30.37,30.25,4,1,4,0.26
2013-7-2,78.6,67.6,58.8,63.2,59.2,56.1,93,75,57,30.38,30.31,6,1,6,0.00
2013-7-3,88.0,74.1,60.8,69.1,63.9,57.2,89,73,42,30.41,30.34,8,1,8,0.00
2013-7-4,84.6,74.8,67.1,67.7,64.1,59.5,95,72,45,30.46,30.40,8,1,8,0.00
2013-7-5,87.8,75.3,69.1,69.8,66.2,60.6,93,75,43,30.43,30.38,5,1,5,0.00
2013-7-6,86.7,75.0,67.3,73.3,67.9,65.5,95,80,52,30.44,30.33,7,1,7,0.07
2013-7-7,88.2,74.5,68.5,69.3,67.2,62.8,95,80,46,30.37,30.30,8,2,8,0.00
2013-7-8,84.6,73.4,66.7,74.8,69.0,64.7,95,86,69,30.37,30.29,6,1,6,0.00
2013-7-9,94.3,78.9,70.9,74.2,69.8,66.9,95,76,44,30.32,30.25,11,2,11,0.00